WetterOnline ( https://www.wetteronline.de )

Wetter aktuell Södra Sunderbyn

Aktuelles Wetter: Lulea (17m)

6-stündlich | Neueste Meldungen
Ortszeit Temperatur Wetter
So, 29.11. 19:00 -2.2° C bedeckt
So, 29.11. 13:00 -5.3° C wolkenlos
So, 29.11. 7:00 -4.2° C fast wolkenlos
So, 29.11. 1:00 0.6° C bedeckt
Sa, 28.11. 19:00 -0.0° C bedeckt
Sa, 28.11. 13:00 -5.7° C bedeckt
Sa, 28.11. 7:00 -10.7° C wolkenlos
Sa, 28.11. 1:00 -8.8° C wolkenlos
Ortszeit Temperatur Wetter
Mo, 30.11. 0:00 -2.2° C fast wolkenlos
So, 29.11. 23:50 -2° C leicht bewölkt
So, 29.11. 23:20 -2° C bewölkt
So, 29.11. 23:00 -1.9° C bedeckt
So, 29.11. 22:50 -2° C bedeckt
So, 29.11. 22:20 -2° C bedeckt
So, 29.11. 22:00 -2.0° C bedeckt
So, 29.11. 21:20 -2° C bedeckt
So, 29.11. 21:00 -2.3° C bedeckt
So, 29.11. 20:20 -2° C leicht bewölkt
Ortszeit Relative Feuchte Sichtweite
So, 29.11. 19:00 94% 45 km
So, 29.11. 13:00 94% 45 km
So, 29.11. 7:00 95% 45 km
So, 29.11. 1:00 92% 45 km
Sa, 28.11. 19:00 96% 35 km
Sa, 28.11. 13:00 96% 26 km
Sa, 28.11. 7:00 92% 26 km
Sa, 28.11. 1:00 95% 35 km
Ortszeit Relative Feuchte Sichtweite
Mo, 30.11. 0:00 90% 50 km
So, 29.11. 23:50 93% >10 km
So, 29.11. 23:20 93% >10 km
So, 29.11. 23:00 94% 50 km
So, 29.11. 22:50 93% >10 km
So, 29.11. 22:20 93% >10 km
So, 29.11. 22:00 94% 45 km
So, 29.11. 21:20 93% >10 km
So, 29.11. 21:00 94% 45 km
So, 29.11. 20:20 93% >10 km
Ortszeit Niederschlagsmenge Niederschlagsart
So, 29.11. 19:00 0.0 l/m2 in 12 Std. -
So, 29.11. 13:00 0.0 l/m2 -
So, 29.11. 7:00 0.1 l/m2 in 12 Std. Schauer, Niederschlag
So, 29.11. 1:00 0.0 l/m2 in 6 Std. -
Sa, 28.11. 19:00 0.0 l/m2 in 12 Std. -
Sa, 28.11. 13:00 0.0 l/m2 -
Sa, 28.11. 7:00 0.0 l/m2 in 12 Std. -
Sa, 28.11. 1:00 0.0 l/m2 in 6 Std. -
Ortszeit Niederschlagsmenge Niederschlagsart
Mo, 30.11. 0:00 0.0 l/m2 in 1 Std. -
So, 29.11. 23:50 keine Meldung -
So, 29.11. 23:20 keine Meldung -
So, 29.11. 23:00 0.0 l/m2 in 1 Std. -
So, 29.11. 22:50 keine Meldung -
So, 29.11. 22:20 keine Meldung -
So, 29.11. 22:00 0.0 l/m2 in 1 Std. -
So, 29.11. 21:20 keine Meldung -
So, 29.11. 21:00 0.0 l/m2 in 1 Std. -
So, 29.11. 20:20 keine Meldung -
Ortszeit Stärke Spitze Richtung
km/h Bft. km/h Grad Sektor
So, 29.11. 19:00 18 3 29 200° S
So, 29.11. 13:00 4 1 14 210° SW
So, 29.11. 7:00 4 1 11 220° SW
So, 29.11. 1:00 14 3 - 200° S
Sa, 28.11. 19:00 14 3 - 220° SW
Sa, 28.11. 13:00 4 1 4 200° S
Sa, 28.11. 7:00 7 2 7 320° NW
Sa, 28.11. 1:00 7 2 - 330° NW
Ortszeit Stärke Spitze Richtung
km/h Bft. km/h Grad Sektor
Mo, 30.11. 0:00 18 3 32 190° S
So, 29.11. 23:50 17 3 - 190° S
So, 29.11. 23:20 17 3 - 190° S
So, 29.11. 23:00 22 4 32 190° S
So, 29.11. 22:50 20 4 - 190° S
So, 29.11. 22:20 17 3 - 200° S
So, 29.11. 22:00 22 4 25 200° S
So, 29.11. 21:20 15 3 - 200° S
So, 29.11. 21:00 18 3 32 190° S
So, 29.11. 20:20 20 4 - 200° S
Ortszeit Untergrenze Bedeckung Gattung
total tief tief mittel hoch
So, 29.11. 19:00 180 m 8/8 8/8 - - -
So, 29.11. 13:00 - 0/8 0/8 - - -
So, 29.11. 7:00 240 m 1/8 1/8 - - -
So, 29.11. 1:00 330 m 8/8 8/8 - - -
Sa, 28.11. 19:00 180 m 8/8 8/8 - - -
Sa, 28.11. 13:00 240 m 8/8 8/8 - - -
Sa, 28.11. 7:00 - 0/8 0/8 - - -
Sa, 28.11. 1:00 - 0/8 0/8 - - -
Ortszeit Bedeckungsgrad in Achtel und Wolkenuntergrenze
Mo, 30.11. 0:00 1(240m)
So, 29.11. 23:50 1-2(240m)
So, 29.11. 23:20 5-7(240m)
So, 29.11. 23:00 8(210m)
So, 29.11. 22:50 8(210m)
So, 29.11. 22:20 8(180m)
So, 29.11. 22:00 8(180m)
So, 29.11. 21:20 5-7(180m) 8(240m)
So, 29.11. 21:00 8(180m)
So, 29.11. 20:20 3-4(240m)
Ortszeit Luftdruck NN (hPa) Tendenz (hPa in 3 Std.)
So, 29.11. 19:00 1023 - 1,6
So, 29.11. 13:00 1026 - 0,9
So, 29.11. 7:00 1027 - 0,1
So, 29.11. 1:00 1027 - 1,0
Sa, 28.11. 19:00 1028 - 0,1
Sa, 28.11. 13:00 1029 0,0
Sa, 28.11. 7:00 1027 + 1,1
Sa, 28.11. 1:00 1025 + 1,5
Ortszeit Luftdruck NN (hPa) Tendenz (hPa in 3 Std.)
Mo, 30.11. 0:00 1021 - 1,5
So, 29.11. 23:50 1021 keine Meldung
So, 29.11. 23:20 1021 keine Meldung
So, 29.11. 23:00 1022 - 1,0
So, 29.11. 22:50 1021 keine Meldung
So, 29.11. 22:20 1022 keine Meldung
So, 29.11. 22:00 1023 - 0,8
So, 29.11. 21:20 1022 keine Meldung
So, 29.11. 21:00 1023 - 0,9
So, 29.11. 20:20 1022 keine Meldung
Ortszeit Schneehöhe (cm)
So, 29.11. 19:00 -
So, 29.11. 13:00 -
So, 29.11. 7:00 -
So, 29.11. 1:00 -
Sa, 28.11. 19:00 -
Sa, 28.11. 13:00 -
Sa, 28.11. 7:00 -
Sa, 28.11. 1:00 -
Ortszeit Schneehöhe (cm)
Mo, 30.11. 0:00 -
So, 29.11. 23:50 -
So, 29.11. 23:20 -
So, 29.11. 23:00 -
So, 29.11. 22:50 -
So, 29.11. 22:20 -
So, 29.11. 22:00 -
So, 29.11. 21:20 -
So, 29.11. 21:00 -
So, 29.11. 20:20 -
Link zu dieser Seite / Seite empfehlen

Das Wetter in ...